Time;durP1;ratioP1;P1;durP2;ratioP2;P2;SDS_P1;SDS_P2;PMS_P1;PMS_P2;Temp;Humidity;BMP_temperature;BMP_pressure;BME280_temperature;BME280_humidity;BME280_pressure;Samples;Min_cycle;Max_cycle;Signal;HPM_P1;HPM_P2
2022/11/07 00:01:40;;;;;;;6.85;4.93;;;;;;;;;;5025827;28;20038;-75
2022/11/07 00:04:08;;;;;;;5.68;4.93;;;;;;;;;;5008251;28;20061;-75
2022/11/07 00:06:36;;;;;;;7.28;4.95;;;;;;;;;;5041376;28;20460;-75
2022/11/07 00:09:04;;;;;;;5.18;4.68;;;;;;;;;;5040877;28;20049;-75
2022/11/07 00:11:31;;;;;;;5.40;4.57;;;;;;;;;;5025426;28;20053;-75
2022/11/07 00:13:58;;;;;;;4.78;4.30;;;;;;;;;;5014433;28;20109;-74
2022/11/07 00:16:27;;;;;;;4.80;4.30;;;;;;;;;;5051295;28;20119;-74
2022/11/07 00:18:55;;;;;;;6.82;4.45;;;;;;;;;;5052452;28;20039;-74
2022/11/07 00:21:22;;;;;;;4.55;4.05;;;;;;;;;;5036832;28;20041;-74
2022/11/07 00:23:49;;;;;;;4.60;4.20;;;;;;;;;;5007510;28;20044;-75
2022/11/07 00:26:16;;;;;;;4.95;4.45;;;;;;;;;;5026312;28;20033;-75
2022/11/07 00:28:44;;;;;;;5.35;4.35;;;;;;;;;;5019666;28;20095;-75
2022/11/07 00:31:13;;;;;;;4.57;4.10;;;;;;;;;;5027719;28;20298;-75
2022/11/07 00:33:41;;;;;;;5.20;4.70;;;;;;;;;;5028947;28;20049;-73
2022/11/07 00:36:09;;;;;;;5.63;4.40;;;;;;;;;;5025682;28;20037;-73
2022/11/07 00:38:36;;;;;;;4.95;4.50;;;;;;;;;;5029577;28;20076;-75
2022/11/07 00:41:05;;;;;;;4.85;4.45;;;;;;;;;;5024975;28;20560;-73
2022/11/07 00:43:33;;;;;;;5.53;4.68;;;;;;;;;;5027198;28;20041;-74
2022/11/07 00:46:01;;;;;;;6.00;4.32;;;;;;;;;;4990992;28;20187;-76
2022/11/07 00:48:29;;;;;;;6.03;4.70;;;;;;;;;;5007572;28;20041;-75
2022/11/07 00:50:57;;;;;;;4.60;4.20;;;;;;;;;;5044548;28;20041;-74
2022/11/07 00:53:24;;;;;;;5.30;4.80;;;;;;;;;;5025750;28;20045;-74
2022/11/07 00:55:51;;;;;;;6.22;4.63;;;;;;;;;;5026005;28;20072;-74
2022/11/07 00:58:19;;;;;;;5.35;4.85;;;;;;;;;;5040490;28;20516;-74
2022/11/07 01:00:46;;;;;;;4.50;4.10;;;;;;;;;;5007667;28;20116;-75
2022/11/07 01:06:01;;;;;;;5.05;4.55;;;;;;;;;;5025427;28;20294;-75
2022/11/07 01:08:29;;;;;;;5.07;4.63;;;;;;;;;;5035177;28;20401;-74
2022/11/07 01:10:57;;;;;;;5.25;4.65;;;;;;;;;;5045291;28;20132;-74
2022/11/07 01:13:24;;;;;;;4.60;4.20;;;;;;;;;;5028280;28;20328;-74
2022/11/07 01:15:51;;;;;;;4.40;4.00;;;;;;;;;;5025543;28;20046;-75
2022/11/07 01:18:19;;;;;;;6.40;4.07;;;;;;;;;;5010714;28;20041;-75
2022/11/07 01:20:48;;;;;;;6.07;4.60;;;;;;;;;;5025095;28;20120;-75
2022/11/07 01:23:16;;;;;;;5.68;4.97;;;;;;;;;;5027632;28;20091;-75
2022/11/07 01:25:44;;;;;;;6.03;4.40;;;;;;;;;;5025440;28;20049;-75
2022/11/07 01:28:11;;;;;;;5.07;4.57;;;;;;;;;;5006372;28;20060;-75
2022/11/07 01:30:40;;;;;;;4.95;4.50;;;;;;;;;;5092992;22;20064;-75
2022/11/07 01:33:07;;;;;;;5.65;4.10;;;;;;;;;;5043743;28;20049;-76
2022/11/07 01:35:35;;;;;;;6.25;5.10;;;;;;;;;;5037916;28;20537;-75
2022/11/07 01:38:03;;;;;;;5.50;5.00;;;;;;;;;;5040675;28;20405;-75
2022/11/07 01:41:19;;;;;;;4.35;3.95;;;;;;;;;;5025210;28;20049;-76
2022/11/07 01:43:21;;;;;;;5.43;4.43;;;;;;;;;;5023748;28;20034;-75
2022/11/07 01:45:49;;;;;;;5.72;3.97;;;;;;;;;;5025525;28;20041;-74
2022/11/07 01:48:16;;;;;;;4.88;4.20;;;;;;;;;;5020891;28;20145;-74
2022/11/07 01:50:44;;;;;;;4.82;4.38;;;;;;;;;;5025263;28;20420;-75
2022/11/07 01:53:11;;;;;;;4.32;3.95;;;;;;;;;;5024032;28;20038;-75
2022/11/07 01:55:39;;;;;;;4.68;4.18;;;;;;;;;;5007515;28;20049;-74
2022/11/07 01:58:07;;;;;;;4.85;4.35;;;;;;;;;;5024345;28;20124;-74
2022/11/07 02:00:35;;;;;;;5.32;4.82;;;;;;;;;;5024429;28;20130;-74
2022/11/07 02:03:14;;;;;;;5.22;4.72;;;;;;;;;;5022851;28;20167;-74
2022/11/07 02:05:51;;;;;;;6.32;4.70;;;;;;;;;;5022040;28;20408;-75
2022/11/07 02:08:19;;;;;;;6.45;5.45;;;;;;;;;;5024189;28;20053;-74
2022/11/07 02:10:46;;;;;;;4.90;4.50;;;;;;;;;;5024446;28;20053;-75
2022/11/07 02:13:16;;;;;;;5.50;4.90;;;;;;;;;;5024860;28;20033;-74
2022/11/07 02:15:43;;;;;;;4.35;4.00;;;;;;;;;;5025141;28;20041;-74
2022/11/07 02:18:11;;;;;;;6.20;4.20;;;;;;;;;;5034364;28;20413;-74
2022/11/07 02:20:38;;;;;;;7.70;4.50;;;;;;;;;;5025502;28;20072;-74
2022/11/07 02:23:08;;;;;;;6.00;5.40;;;;;;;;;;5026022;28;20091;-74
2022/11/07 02:25:36;;;;;;;5.35;4.85;;;;;;;;;;5024712;28;20103;-74
2022/11/07 02:28:06;;;;;;;5.90;4.93;;;;;;;;;;5025021;28;20049;-74
2022/11/07 02:30:34;;;;;;;5.20;4.70;;;;;;;;;;5022911;28;20148;-74
2022/11/07 02:33:02;;;;;;;5.32;4.82;;;;;;;;;;5008212;28;20064;-74
2022/11/07 02:35:36;;;;;;;5.43;4.07;;;;;;;;;;5026575;28;20124;-73
2022/11/07 02:38:10;;;;;;;6.18;4.80;;;;;;;;;;5028532;28;20125;-73
2022/11/07 02:40:37;;;;;;;5.40;4.80;;;;;;;;;;5028053;28;20048;-74
2022/11/07 02:43:06;;;;;;;5.40;4.90;;;;;;;;;;5028075;28;20440;-73
2022/11/07 02:45:35;;;;;;;5.13;4.68;;;;;;;;;;5026698;28;20045;-74
2022/11/07 02:48:02;;;;;;;6.80;5.10;;;;;;;;;;5028100;28;20046;-74
2022/11/07 02:50:30;;;;;;;8.52;5.10;;;;;;;;;;5020623;28;20045;-74
2022/11/07 02:52:57;;;;;;;5.57;5.07;;;;;;;;;;5028291;28;20059;-74
2022/11/07 02:55:25;;;;;;;6.78;5.40;;;;;;;;;;5027953;28;20088;-75
2022/11/07 02:57:52;;;;;;;5.85;5.00;;;;;;;;;;5028176;28;20049;-74
2022/11/07 03:00:20;;;;;;;5.80;4.65;;;;;;;;;;5023314;28;20422;-74
2022/11/07 03:02:47;;;;;;;5.32;4.82;;;;;;;;;;5022975;28;20038;-74
2022/11/07 03:05:16;;;;;;;5.85;5.05;;;;;;;;;;5022009;28;20041;-74
2022/11/07 03:07:44;;;;;;;10.95;4.45;;;;;;;;;;5031040;28;20524;-75
2022/11/07 03:10:12;;;;;;;5.60;5.07;;;;;;;;;;5028461;28;20107;-75
2022/11/07 03:12:39;;;;;;;5.45;4.95;;;;;;;;;;5026713;28;20520;-75
2022/11/07 03:15:07;;;;;;;5.72;5.22;;;;;;;;;;5028272;28;20045;-75
2022/11/07 03:17:35;;;;;;;6.93;4.88;;;;;;;;;;5027113;28;20033;-75
2022/11/07 03:20:02;;;;;;;6.05;5.45;;;;;;;;;;5028241;28;20523;-75
2022/11/07 03:22:30;;;;;;;5.72;5.13;;;;;;;;;;5027960;28;20053;-74
2022/11/07 03:24:57;;;;;;;7.13;5.10;;;;;;;;;;5026142;28;20416;-74
2022/11/07 03:27:24;;;;;;;5.93;5.32;;;;;;;;;;5027596;28;20049;-75
2022/11/07 03:29:52;;;;;;;10.57;4.68;;;;;;;;;;5038665;28;20080;-74
2022/11/07 03:32:19;;;;;;;5.60;5.10;;;;;;;;;;5026388;28;20111;-75
2022/11/07 03:34:46;;;;;;;5.38;4.88;;;;;;;;;;5027151;28;20668;-74
2022/11/07 03:37:14;;;;;;;5.30;4.75;;;;;;;;;;5026617;28;20042;-75
2022/11/07 03:39:41;;;;;;;4.82;4.43;;;;;;;;;;5027237;28;20140;-74
2022/11/07 03:42:09;;;;;;;5.20;4.70;;;;;;;;;;5027603;28;20034;-74
2022/11/07 03:44:36;;;;;;;5.53;4.93;;;;;;;;;;5026113;28;20138;-74
2022/11/07 03:47:03;;;;;;;5.88;4.95;;;;;;;;;;5025860;28;20049;-74
2022/11/07 03:49:31;;;;;;;5.25;4.85;;;;;;;;;;5026135;28;20123;-75
2022/11/07 03:51:58;;;;;;;5.82;4.93;;;;;;;;;;5026521;28;20048;-75
2022/11/07 03:54:28;;;;;;;6.18;4.93;;;;;;;;;;5025913;28;20053;-75
2022/11/07 03:56:55;;;;;;;5.35;4.85;;;;;;;;;;5026473;28;20086;-76
2022/11/07 03:59:22;;;;;;;7.00;5.25;;;;;;;;;;5006613;28;20041;-75
2022/11/07 04:01:50;;;;;;;5.07;4.53;;;;;;;;;;5023250;28;20529;-75
2022/11/07 04:04:17;;;;;;;5.63;4.93;;;;;;;;;;5026882;28;20041;-75
2022/11/07 04:06:44;;;;;;;5.43;4.93;;;;;;;;;;5025887;28;20561;-74
2022/11/07 04:09:12;;;;;;;5.00;4.50;;;;;;;;;;5027303;28;20040;-75
2022/11/07 04:17:17;;;;;;;4.93;4.53;;;;;;;;;;5026010;28;20385;-74
2022/11/07 04:19:45;;;;;;;5.30;4.80;;;;;;;;;;5014657;28;20038;-74
2022/11/07 04:22:13;;;;;;;5.38;4.68;;;;;;;;;;5023758;28;20052;-75
2022/11/07 04:24:41;;;;;;;5.13;4.60;;;;;;;;;;5030615;28;20091;-75
2022/11/07 04:30:17;;;;;;;5.88;4.50;;;;;;;;;;5024964;28;20132;-76
2022/11/07 04:32:45;;;;;;;5.43;4.80;;;;;;;;;;5024686;28;20434;-75
2022/11/07 04:35:12;;;;;;;5.05;4.57;;;;;;;;;;5026359;28;20041;-76
2022/11/07 04:37:40;;;;;;;5.63;5.05;;;;;;;;;;5025414;28;20046;-75
2022/11/07 04:40:08;;;;;;;5.95;5.35;;;;;;;;;;5025499;28;20498;-75
2022/11/07 04:42:36;;;;;;;8.65;4.75;;;;;;;;;;5019352;28;20049;-75
2022/11/07 04:45:03;;;;;;;5.70;5.20;;;;;;;;;;5028346;28;20065;-75
2022/11/07 04:47:31;;;;;;;5.40;5.00;;;;;;;;;;5036586;28;20350;-74
2022/11/07 04:50:03;;;;;;;7.85;5.45;;;;;;;;;;5038496;28;20058;-74
2022/11/07 04:52:30;;;;;;;6.43;5.25;;;;;;;;;;5025357;28;20050;-74
2022/11/07 04:54:57;;;;;;;5.50;4.97;;;;;;;;;;5025625;28;20037;-74
2022/11/07 04:57:25;;;;;;;6.03;5.25;;;;;;;;;;5027724;28;20048;-74
2022/11/07 04:59:52;;;;;;;5.78;5.05;;;;;;;;;;4992698;28;20045;-74
2022/11/07 05:02:22;;;;;;;7.15;5.15;;;;;;;;;;5023618;28;20041;-74
2022/11/07 05:04:50;;;;;;;5.45;4.82;;;;;;;;;;5027192;28;20173;-75
2022/11/07 05:07:18;;;;;;;6.32;4.60;;;;;;;;;;5020069;28;20038;-74
2022/11/07 05:09:46;;;;;;;4.80;4.30;;;;;;;;;;5024586;28;20109;-74
2022/11/07 05:12:13;;;;;;;5.45;4.95;;;;;;;;;;5026653;28;20046;-75
2022/11/07 05:14:40;;;;;;;6.25;5.20;;;;;;;;;;5028049;28;20061;-75
2022/11/07 05:17:09;;;;;;;5.22;4.82;;;;;;;;;;5026749;28;20099;-75
2022/11/07 05:19:37;;;;;;;5.35;4.68;;;;;;;;;;5026642;28;20128;-76
2022/11/07 05:24:50;;;;;;;5.70;4.70;;;;;;;;;;5026842;28;20132;-75
2022/11/07 05:27:18;;;;;;;5.78;5.38;;;;;;;;;;5026002;28;20413;-75
2022/11/07 05:29:46;;;;;;;5.57;4.70;;;;;;;;;;5016640;28;20068;-75
2022/11/07 05:32:14;;;;;;;5.90;5.10;;;;;;;;;;5025166;28;20176;-75
2022/11/07 05:34:41;;;;;;;6.70;5.85;;;;;;;;;;5023558;28;20057;-75
2022/11/07 05:37:09;;;;;;;7.15;5.55;;;;;;;;;;5021374;28;20046;-76
2022/11/07 05:39:36;;;;;;;6.13;5.53;;;;;;;;;;5027038;28;20064;-75
2022/11/07 05:42:04;;;;;;;6.90;6.10;;;;;;;;;;5022955;28;20038;-75
2022/11/07 05:44:32;;;;;;;6.97;6.28;;;;;;;;;;5027071;28;20045;-75
2022/11/07 05:47:00;;;;;;;7.63;5.78;;;;;;;;;;5026154;28;20053;-75
2022/11/07 05:49:27;;;;;;;6.55;5.05;;;;;;;;;;5023167;28;20398;-75
2022/11/07 05:51:55;;;;;;;11.88;9.90;;;;;;;;;;5023841;28;20144;-75
2022/11/07 05:54:23;;;;;;;7.55;6.28;;;;;;;;;;5023313;28;20041;-75
2022/11/07 05:56:54;;;;;;;5.97;5.18;;;;;;;;;;5026634;28;20041;-76
2022/11/07 05:59:21;;;;;;;7.20;5.75;;;;;;;;;;5027169;28;20053;-75
2022/11/07 06:01:49;;;;;;;6.32;5.35;;;;;;;;;;5025547;28;20051;-75
2022/11/07 06:04:17;;;;;;;8.20;5.00;;;;;;;;;;5026730;28;20501;-75
2022/11/07 06:06:45;;;;;;;7.03;6.38;;;;;;;;;;5011811;28;20038;-74
2022/11/07 06:09:12;;;;;;;8.07;5.55;;;;;;;;;;5020436;28;20137;-74
2022/11/07 06:11:40;;;;;;;5.72;5.20;;;;;;;;;;4987923;28;20417;-75
2022/11/07 06:14:07;;;;;;;6.15;5.65;;;;;;;;;;5022008;28;20088;-74
2022/11/07 06:16:35;;;;;;;6.28;5.45;;;;;;;;;;5023124;28;20647;-75
2022/11/07 06:19:02;;;;;;;6.90;6.30;;;;;;;;;;5020600;28;20057;-75
2022/11/07 06:21:29;;;;;;;7.55;6.35;;;;;;;;;;5024906;28;20037;-74
2022/11/07 06:23:58;;;;;;;6.43;5.82;;;;;;;;;;5028638;28;20073;-75
2022/11/07 06:26:25;;;;;;;8.70;6.57;;;;;;;;;;5012130;28;20045;-74
2022/11/07 06:28:53;;;;;;;9.68;8.30;;;;;;;;;;5029956;28;20132;-74
2022/11/07 06:31:20;;;;;;;11.20;7.72;;;;;;;;;;5028358;28;20056;-74
2022/11/07 06:33:51;;;;;;;8.95;6.03;;;;;;;;;;5029664;28;20041;-74
2022/11/07 06:36:18;;;;;;;9.27;6.47;;;;;;;;;;5019030;28;20037;-72
2022/11/07 06:38:46;;;;;;;9.32;6.35;;;;;;;;;;5028483;28;20498;-74
2022/11/07 06:41:15;;;;;;;7.07;6.18;;;;;;;;;;5032022;28;20037;-74
2022/11/07 06:43:42;;;;;;;15.55;11.80;;;;;;;;;;5030785;28;20576;-74
2022/11/07 06:46:10;;;;;;;10.20;7.32;;;;;;;;;;5047305;28;20109;-73
2022/11/07 06:48:47;;;;;;;8.15;7.35;;;;;;;;;;5029189;28;20416;-74
2022/11/07 06:51:14;;;;;;;8.70;7.80;;;;;;;;;;5027737;28;20038;-74
2022/11/07 06:53:42;;;;;;;8.88;7.35;;;;;;;;;;5019651;28;20129;-73
2022/11/07 06:56:12;;;;;;;8.65;7.75;;;;;;;;;;5017212;28;20270;-74
2022/11/07 06:58:39;;;;;;;11.32;10.13;;;;;;;;;;5042305;28;20049;-74
2022/11/07 07:01:08;;;;;;;13.23;9.98;;;;;;;;;;5023849;28;20104;-75
2022/11/07 07:03:36;;;;;;;10.65;9.02;;;;;;;;;;4976325;28;20067;-74
2022/11/07 07:06:04;;;;;;;14.02;9.98;;;;;;;;;;5020897;28;20092;-74
2022/11/07 07:08:32;;;;;;;9.52;8.25;;;;;;;;;;4986999;28;20054;-74
2022/11/07 07:11:04;;;;;;;10.68;9.13;;;;;;;;;;5023762;28;20509;-74
2022/11/07 07:13:31;;;;;;;11.32;9.38;;;;;;;;;;5025952;28;20076;-75
2022/11/07 07:15:59;;;;;;;11.40;8.80;;;;;;;;;;5025394;28;20044;-74
2022/11/07 07:18:26;;;;;;;9.20;7.97;;;;;;;;;;5019507;28;20038;-75
2022/11/07 07:21:01;;;;;;;11.40;9.57;;;;;;;;;;5022925;28;20047;-74
2022/11/07 07:23:28;;;;;;;9.75;8.70;;;;;;;;;;5022636;28;20038;-75
2022/11/07 07:25:55;;;;;;;10.70;8.45;;;;;;;;;;5003914;28;20111;-74
2022/11/07 07:28:23;;;;;;;8.90;7.57;;;;;;;;;;4993220;28;20118;-74
2022/11/07 07:30:51;;;;;;;7.75;6.95;;;;;;;;;;5601945;22;20541;-73
2022/11/07 07:33:18;;;;;;;9.48;7.43;;;;;;;;;;5041930;28;20060;-73
2022/11/07 07:35:46;;;;;;;8.15;7.40;;;;;;;;;;5043884;28;20052;-73
2022/11/07 07:38:13;;;;;;;11.57;7.95;;;;;;;;;;5030456;28;20044;-75
2022/11/07 07:40:40;;;;;;;11.25;9.80;;;;;;;;;;5038293;28;20056;-73
2022/11/07 07:43:08;;;;;;;13.05;10.23;;;;;;;;;;5046137;28;20071;-74
2022/11/07 07:45:35;;;;;;;14.07;9.40;;;;;;;;;;5063674;28;20037;-75
2022/11/07 07:48:02;;;;;;;9.40;7.53;;;;;;;;;;5046756;28;20102;-74
2022/11/07 07:50:29;;;;;;;7.65;6.70;;;;;;;;;;5046675;28;20076;-74
2022/11/07 07:52:57;;;;;;;9.05;7.22;;;;;;;;;;5046416;28;20045;-75
2022/11/07 07:55:25;;;;;;;7.40;6.70;;;;;;;;;;5047577;28;20455;-74
2022/11/07 07:57:52;;;;;;;11.50;6.93;;;;;;;;;;5046389;28;20391;-75
2022/11/07 08:00:20;;;;;;;8.88;6.35;;;;;;;;;;5047486;28;20457;-74
2022/11/07 08:02:47;;;;;;;9.45;7.25;;;;;;;;;;5046428;28;20140;-74
2022/11/07 08:05:15;;;;;;;8.02;7.25;;;;;;;;;;5052471;28;20114;-74
2022/11/07 08:07:46;;;;;;;7.63;6.82;;;;;;;;;;5045841;28;20047;-74
2022/11/07 08:10:14;;;;;;;9.07;7.22;;;;;;;;;;5045831;28;20094;-74
2022/11/07 08:13:01;;;;;;;7.38;5.88;;;;;;;;;;5044775;28;20041;-74
2022/11/07 08:15:28;;;;;;;6.47;5.88;;;;;;;;;;5029483;28;20094;-74
2022/11/07 08:18:00;;;;;;;6.97;6.25;;;;;;;;;;5047106;28;20041;-75
2022/11/07 08:20:28;;;;;;;7.68;6.28;;;;;;;;;;5048826;28;20041;-74
2022/11/07 08:23:02;;;;;;;6.22;5.57;;;;;;;;;;5044402;28;20044;-74
2022/11/07 08:25:30;;;;;;;5.88;5.28;;;;;;;;;;5043047;28;20067;-74
2022/11/07 08:27:57;;;;;;;5.82;5.32;;;;;;;;;;5045303;28;20064;-76
2022/11/07 08:30:25;;;;;;;7.32;5.07;;;;;;;;;;5044947;28;20044;-76
2022/11/07 08:32:53;;;;;;;6.15;4.82;;;;;;;;;;5045585;28;20424;-75
2022/11/07 08:35:20;;;;;;;5.70;5.20;;;;;;;;;;5046763;28;20037;-75
2022/11/07 08:37:47;;;;;;;5.93;5.32;;;;;;;;;;5047398;28;20053;-75
2022/11/07 08:40:15;;;;;;;7.63;5.53;;;;;;;;;;5047254;28;20125;-75
2022/11/07 08:42:42;;;;;;;7.47;5.80;;;;;;;;;;5071864;28;20033;-74
2022/11/07 08:45:10;;;;;;;6.68;5.97;;;;;;;;;;5070662;28;20108;-74
2022/11/07 08:47:37;;;;;;;9.30;5.93;;;;;;;;;;5067729;28;20040;-75
2022/11/07 08:50:05;;;;;;;6.93;6.28;;;;;;;;;;5076646;28;20044;-74
2022/11/07 08:52:34;;;;;;;15.88;9.05;;;;;;;;;;5052069;28;20094;-75
2022/11/07 08:55:02;;;;;;;11.55;8.32;;;;;;;;;;5046729;28;20051;-75
2022/11/07 08:57:29;;;;;;;23.58;13.27;;;;;;;;;;5049453;28;20041;-75
2022/11/07 08:59:57;;;;;;;8.40;7.50;;;;;;;;;;5046111;28;20539;-75
2022/11/07 09:02:24;;;;;;;7.28;6.30;;;;;;;;;;5046816;28;20051;-75
2022/11/07 09:05:11;;;;;;;10.15;8.95;;;;;;;;;;5047008;28;20033;-75
2022/11/07 09:07:39;;;;;;;6.20;5.60;;;;;;;;;;5043914;28;20049;-74
2022/11/07 09:10:06;;;;;;;5.68;4.75;;;;;;;;;;5047233;28;20071;-75
2022/11/07 09:12:34;;;;;;;5.13;4.72;;;;;;;;;;5046568;28;20473;-74
2022/11/07 09:15:01;;;;;;;5.43;4.90;;;;;;;;;;5045169;28;20044;-74
2022/11/07 09:17:28;;;;;;;5.78;5.18;;;;;;;;;;5046013;28;20098;-74
2022/11/07 09:19:56;;;;;;;6.30;5.30;;;;;;;;;;5046963;28;20041;-74
2022/11/07 09:22:23;;;;;;;4.85;4.45;;;;;;;;;;5044558;28;20037;-75
2022/11/07 09:24:50;;;;;;;4.63;4.22;;;;;;;;;;5061431;28;20119;-75
2022/11/07 09:27:18;;;;;;;5.15;4.65;;;;;;;;;;5046597;28;20045;-75
2022/11/07 09:29:45;;;;;;;5.15;4.65;;;;;;;;;;5028577;28;20057;-75
2022/11/07 09:32:12;;;;;;;4.88;4.47;;;;;;;;;;5045277;28;20524;-74
2022/11/07 09:35:00;;;;;;;5.80;5.20;;;;;;;;;;5044766;28;20128;-73
2022/11/07 09:37:31;;;;;;;9.88;5.57;;;;;;;;;;5045633;28;20048;-74
2022/11/07 09:39:58;;;;;;;5.63;5.05;;;;;;;;;;5046883;28;20052;-73
2022/11/07 09:42:32;;;;;;;6.10;4.60;;;;;;;;;;5044202;28;20154;-74
2022/11/07 09:45:00;;;;;;;5.18;4.60;;;;;;;;;;5045370;28;20037;-74
2022/11/07 09:47:33;;;;;;;6.38;4.20;;;;;;;;;;5046436;28;20409;-74
2022/11/07 09:50:04;;;;;;;4.28;3.88;;;;;;;;;;5045704;28;20049;-75
2022/11/07 09:52:48;;;;;;;4.40;4.00;;;;;;;;;;5045879;28;20547;-74
2022/11/07 09:55:22;;;;;;;4.30;3.90;;;;;;;;;;5046913;28;20049;-74
2022/11/07 09:57:51;;;;;;;3.58;3.28;;;;;;;;;;5057458;28;20037;-75
2022/11/07 10:00:20;;;;;;;3.67;3.38;;;;;;;;;;5046131;28;20547;-74
2022/11/07 10:02:53;;;;;;;3.58;3.28;;;;;;;;;;5057282;28;20095;-74
2022/11/07 10:05:30;;;;;;;5.22;3.97;;;;;;;;;;5043085;28;20052;-74
2022/11/07 10:08:01;;;;;;;3.97;3.35;;;;;;;;;;5043359;28;20049;-74
2022/11/07 10:10:34;;;;;;;4.05;3.42;;;;;;;;;;5046230;28;20041;-73
2022/11/07 10:13:05;;;;;;;4.00;3.60;;;;;;;;;;5060352;28;20478;-74
2022/11/07 10:15:47;;;;;;;3.70;3.47;;;;;;;;;;5045545;28;20114;-74
2022/11/07 10:18:17;;;;;;;6.35;4.40;;;;;;;;;;5060857;28;20045;-74
2022/11/07 10:21:05;;;;;;;4.13;3.83;;;;;;;;;;5045391;28;20037;-74
2022/11/07 10:23:58;;;;;;;3.92;2.95;;;;;;;;;;5042018;28;20044;-76
2022/11/07 10:26:28;;;;;;;4.35;3.30;;;;;;;;;;5043955;28;20056;-74
2022/11/07 10:29:11;;;;;;;7.20;4.90;;;;;;;;;;5043811;28;20536;-75
2022/11/07 10:32:02;;;;;;;3.35;3.05;;;;;;;;;;5046632;28;20044;-75
2022/11/07 10:34:32;;;;;;;3.45;3.10;;;;;;;;;;5042023;28;20191;-73
2022/11/07 10:36:59;;;;;;;4.70;3.38;;;;;;;;;;5056154;28;20385;-75
2022/11/07 10:39:27;;;;;;;6.05;2.97;;;;;;;;;;5049296;28;20415;-74
2022/11/07 10:42:00;;;;;;;2.70;2.50;;;;;;;;;;5049433;28;20504;-75
2022/11/07 10:44:28;;;;;;;6.53;3.05;;;;;;;;;;5053878;28;20049;-75
2022/11/07 10:46:56;;;;;;;3.33;2.50;;;;;;;;;;5050617;28;20582;-75
2022/11/07 10:49:28;;;;;;;2.70;2.50;;;;;;;;;;5053266;28;20500;-75
2022/11/07 10:51:55;;;;;;;;;;;;;;;;;;5048337;28;20064;-75
2022/11/07 10:54:25;;;;;;;2.65;2.45;;;;;;;;;;5048496;28;20065;-74
2022/11/07 10:57:13;;;;;;;2.70;2.50;;;;;;;;;;5048554;28;20126;-74
2022/11/07 10:59:57;;;;;;;3.40;2.70;;;;;;;;;;5048569;28;20458;-74
2022/11/07 11:02:31;;;;;;;4.57;2.65;;;;;;;;;;5044938;28;20082;-75
2022/11/07 11:05:01;;;;;;;2.40;2.20;;;;;;;;;;5057260;28;20319;-76
2022/11/07 11:07:36;;;;;;;3.15;2.42;;;;;;;;;;5042685;28;20363;-74
2022/11/07 11:10:17;;;;;;;4.40;2.08;;;;;;;;;;5040536;28;20045;-74
2022/11/07 11:12:45;;;;;;;2.80;2.60;;;;;;;;;;5045119;28;20037;-74
2022/11/07 11:15:14;;;;;;;2.00;1.90;;;;;;;;;;5049174;28;20567;-75
2022/11/07 11:17:42;;;;;;;2.58;2.00;;;;;;;;;;5053834;28;20041;-74
2022/11/07 11:20:30;;;;;;;1.92;1.83;;;;;;;;;;5044432;28;20033;-74
2022/11/07 11:22:58;;;;;;;2.83;2.30;;;;;;;;;;5015145;28;20048;-73
2022/11/07 11:25:26;;;;;;;2.75;2.20;;;;;;;;;;5053064;28;20507;-75
2022/11/07 11:27:59;;;;;;;2.30;1.80;;;;;;;;;;5050960;28;20403;-74
2022/11/07 11:30:29;;;;;;;2.33;2.03;;;;;;;;;;5051780;28;20147;-75
2022/11/07 11:33:00;;;;;;;2.50;2.30;;;;;;;;;;5052884;28;20050;-75
2022/11/07 11:35:27;;;;;;;2.90;2.58;;;;;;;;;;5060410;28;20045;-74
2022/11/07 11:37:58;;;;;;;2.85;2.20;;;;;;;;;;5050277;28;20086;-74
2022/11/07 11:40:27;;;;;;;1.70;1.60;;;;;;;;;;5059897;28;20408;-74
2022/11/07 11:43:02;;;;;;;3.42;1.80;;;;;;;;;;5045200;28;20094;-74
2022/11/07 11:45:35;;;;;;;4.13;2.90;;;;;;;;;;5048201;28;20040;-75
2022/11/07 11:48:25;;;;;;;1.90;1.80;;;;;;;;;;5046187;28;20139;-74
2022/11/07 11:50:56;;;;;;;2.70;1.90;;;;;;;;;;5036998;28;20087;-74
2022/11/07 11:53:23;;;;;;;2.40;1.60;;;;;;;;;;5044415;28;20045;-73
2022/11/07 11:56:06;;;;;;;2.25;1.55;;;;;;;;;;5047725;28;20489;-74
2022/11/07 11:58:52;;;;;;;2.25;1.42;;;;;;;;;;5029365;28;20504;-72
2022/11/07 12:01:30;;;;;;;1.80;1.30;;;;;;;;;;5047706;28;20047;-74
2022/11/07 12:04:18;;;;;;;4.07;2.10;;;;;;;;;;5047666;28;20066;-74
2022/11/07 12:06:46;;;;;;;1.70;1.60;;;;;;;;;;5047099;28;20087;-75
2022/11/07 12:09:31;;;;;;;1.75;1.65;;;;;;;;;;5047988;28;20471;-74
2022/11/07 12:12:11;;;;;;;2.55;1.50;;;;;;;;;;5062436;28;20553;-75
2022/11/07 12:14:44;;;;;;;1.50;1.40;;;;;;;;;;5045757;28;20052;-74
2022/11/07 12:17:20;;;;;;;2.30;1.58;;;;;;;;;;5047313;28;20128;-74
2022/11/07 12:20:06;;;;;;;1.48;1.38;;;;;;;;;;5047652;28;20120;-75
2022/11/07 12:22:36;;;;;;;2.10;2.00;;;;;;;;;;5061211;28;20503;-75
2022/11/07 12:25:23;;;;;;;2.20;2.10;;;;;;;;;;5044722;28;20033;-74
2022/11/07 12:28:02;;;;;;;2.60;2.38;;;;;;;;;;5056111;28;20033;-74
2022/11/07 12:30:30;;;;;;;2.20;2.10;;;;;;;;;;5046193;28;20365;-74
2022/11/07 12:33:03;;;;;;;2.17;2.08;;;;;;;;;;5045877;28;20041;-74
2022/11/07 12:35:33;;;;;;;2.47;2.25;;;;;;;;;;5045192;28;20326;-75
2022/11/07 12:38:20;;;;;;;2.22;2.03;;;;;;;;;;5046894;28;20044;-74
2022/11/07 12:41:04;;;;;;;4.75;2.75;;;;;;;;;;5042511;28;20103;-75
2022/11/07 12:43:39;;;;;;;3.80;2.10;;;;;;;;;;5040471;28;20122;-75
2022/11/07 12:46:25;;;;;;;4.30;2.05;;;;;;;;;;5027485;28;20046;-75
2022/11/07 12:48:59;;;;;;;3.20;2.30;;;;;;;;;;5013350;28;20049;-74
2022/11/07 12:51:49;;;;;;;5.45;2.30;;;;;;;;;;5036643;28;20059;-74
2022/11/07 12:54:35;;;;;;;6.25;3.50;;;;;;;;;;5032181;28;20045;-75
2022/11/07 12:57:05;;;;;;;2.50;2.17;;;;;;;;;;5034528;28;20048;-75
2022/11/07 12:59:35;;;;;;;2.20;2.00;;;;;;;;;;5034737;28;20435;-75
2022/11/07 13:02:25;;;;;;;3.67;3.33;;;;;;;;;;5038470;28;20045;-74
2022/11/07 13:05:11;;;;;;;2.33;2.05;;;;;;;;;;5040743;28;20048;-74
2022/11/07 13:07:42;;;;;;;2.17;1.98;;;;;;;;;;5038567;28;20060;-74
2022/11/07 13:10:14;;;;;;;2.20;2.00;;;;;;;;;;5037259;28;20057;-74
2022/11/07 13:12:42;;;;;;;1.90;1.75;;;;;;;;;;5037967;28;20301;-74
2022/11/07 13:15:11;;;;;;;2.20;2.00;;;;;;;;;;5023286;28;20064;-74
2022/11/07 13:17:41;;;;;;;4.30;2.05;;;;;;;;;;5038118;28;20459;-73
2022/11/07 13:20:20;;;;;;;1.92;1.73;;;;;;;;;;5038602;28;20427;-73
2022/11/07 13:22:48;;;;;;;2.35;1.67;;;;;;;;;;5039934;28;20540;-73
2022/11/07 13:25:16;;;;;;;2.40;2.20;;;;;;;;;;5040033;28;20040;-74
2022/11/07 13:27:45;;;;;;;1.77;1.67;;;;;;;;;;5040551;28;20056;-74
2022/11/07 13:33:23;;;;;;;2.72;1.70;;;;;;;;;;5039331;28;20056;-74
2022/11/07 13:35:55;;;;;;;1.80;1.50;;;;;;;;;;5023934;28;20121;-75
2022/11/07 13:38:23;;;;;;;3.15;1.90;;;;;;;;;;5020646;28;20412;-75
2022/11/07 13:41:03;;;;;;;2.55;1.88;;;;;;;;;;5033970;28;20041;-76
2022/11/07 13:43:46;;;;;;;2.42;2.00;;;;;;;;;;5005004;28;20045;-75
2022/11/07 13:46:35;;;;;;;1.77;1.67;;;;;;;;;;5021091;28;20060;-75
2022/11/07 13:49:10;;;;;;;2.38;1.65;;;;;;;;;;5020681;28;20167;-75
2022/11/07 13:51:48;;;;;;;1.60;1.50;;;;;;;;;;5007746;28;20059;-75
2022/11/07 13:54:16;;;;;;;2.00;1.80;;;;;;;;;;5006492;28;20053;-75
2022/11/07 13:56:49;;;;;;;1.90;1.80;;;;;;;;;;5004840;28;20056;-75
2022/11/07 13:59:25;;;;;;;2.45;1.80;;;;;;;;;;5014094;28;20288;-75
2022/11/07 14:01:56;;;;;;;2.88;1.73;;;;;;;;;;5040624;28;20049;-75
2022/11/07 14:04:26;;;;;;;2.40;2.20;;;;;;;;;;5022572;28;20121;-75
2022/11/07 14:07:00;;;;;;;2.90;2.03;;;;;;;;;;5021865;28;20071;-75
2022/11/07 14:09:30;;;;;;;3.80;2.30;;;;;;;;;;5027341;28;20041;-76
2022/11/07 14:11:57;;;;;;;2.10;1.95;;;;;;;;;;5006123;28;20888;-75
2022/11/07 14:14:26;;;;;;;1.95;1.85;;;;;;;;;;5020223;28;20054;-76
2022/11/07 14:16:56;;;;;;;1.75;1.65;;;;;;;;;;5022073;28;20155;-75
2022/11/07 14:19:29;;;;;;;3.03;1.80;;;;;;;;;;5022073;28;20360;-76
2022/11/07 14:21:56;;;;;;;2.67;2.42;;;;;;;;;;5021002;28;20137;-75
2022/11/07 14:24:31;;;;;;;9.30;1.90;;;;;;;;;;5021375;28;20464;-76
2022/11/07 14:27:07;;;;;;;3.88;1.90;;;;;;;;;;5020358;28;20045;-75
2022/11/07 14:29:34;;;;;;;2.83;2.17;;;;;;;;;;5023946;28;20087;-75
2022/11/07 14:32:04;;;;;;;2.67;2.47;;;;;;;;;;5010364;28;20053;-75
2022/11/07 14:34:34;;;;;;;3.40;2.25;;;;;;;;;;4991449;28;20037;-76
2022/11/07 14:37:04;;;;;;;3.60;3.30;;;;;;;;;;5029105;28;20038;-75
2022/11/07 14:39:33;;;;;;;4.35;3.95;;;;;;;;;;5026830;28;20045;-75
2022/11/07 14:42:02;;;;;;;9.90;7.18;;;;;;;;;;5012310;28;20049;-74
2022/11/07 14:44:33;;;;;;;7.07;5.38;;;;;;;;;;5031042;28;20037;-75
2022/11/07 14:47:22;;;;;;;7.70;5.13;;;;;;;;;;5030223;28;20537;-74
2022/11/07 14:49:51;;;;;;;6.45;5.72;;;;;;;;;;5011385;28;20048;-75
2022/11/07 14:52:19;;;;;;;14.90;10.00;;;;;;;;;;5029694;28;20073;-75
2022/11/07 14:54:47;;;;;;;13.80;10.73;;;;;;;;;;5030838;28;20042;-76
2022/11/07 14:57:15;;;;;;;13.52;10.15;;;;;;;;;;5031152;28;20528;-75
2022/11/07 14:59:42;;;;;;;10.63;8.90;;;;;;;;;;5036910;28;20041;-76
2022/11/07 15:02:13;;;;;;;15.35;9.80;;;;;;;;;;5012966;28;20559;-75
2022/11/07 15:04:41;;;;;;;18.10;9.68;;;;;;;;;;5024594;28;20041;-75
2022/11/07 15:07:21;;;;;;;11.43;7.97;;;;;;;;;;5030587;28;20060;-75
2022/11/07 15:09:48;;;;;;;11.15;6.97;;;;;;;;;;5029545;28;20145;-76
2022/11/07 15:12:20;;;;;;;7.10;5.97;;;;;;;;;;5030496;28;20041;-75
2022/11/07 15:14:59;;;;;;;6.43;4.80;;;;;;;;;;5031176;28;20049;-76
2022/11/07 15:17:26;;;;;;;6.10;3.85;;;;;;;;;;5031010;28;20132;-75